createdAt,value
2023-01-25T00:02:05.016Z,67.60
2023-01-25T00:04:34.062Z,64.70
2023-01-25T00:07:02.653Z,68.17
2023-01-25T00:09:31.090Z,59.70
2023-01-25T00:12:00.960Z,52.40
2023-01-25T00:14:29.520Z,42.83
2023-01-25T00:16:58.237Z,49.90
2023-01-25T00:19:26.907Z,47.97
2023-01-25T00:21:55.540Z,51.70
2023-01-25T00:24:25.981Z,54.73
2023-01-25T00:26:54.507Z,60.00
2023-01-25T00:29:24.524Z,69.70
2023-01-25T00:32:00.517Z,61.03
2023-01-25T00:34:46.930Z,69.57
2023-01-25T00:37:21.859Z,62.23
2023-01-25T00:39:50.550Z,70.03
2023-01-25T00:42:20.250Z,69.70
2023-01-25T00:44:50.252Z,70.30
2023-01-25T00:47:19.329Z,63.37
2023-01-25T00:49:49.009Z,62.07
2023-01-25T00:52:17.459Z,61.33
2023-01-25T00:54:46.115Z,56.57
2023-01-25T00:57:14.486Z,59.80
2023-01-25T00:59:44.895Z,52.53
2023-01-25T01:02:15.061Z,32.97
2023-01-25T01:04:43.742Z,36.07
2023-01-25T01:07:14.689Z,29.83
2023-01-25T01:09:43.285Z,40.57
2023-01-25T01:12:11.728Z,47.60
2023-01-25T01:14:40.514Z,47.10
2023-01-25T01:17:08.938Z,46.80
2023-01-25T01:19:38.833Z,45.93
2023-01-25T01:22:07.353Z,40.47
2023-01-25T01:24:35.854Z,39.17
2023-01-25T01:27:04.433Z,29.60
2023-01-25T01:29:32.954Z,29.67
2023-01-25T01:32:01.818Z,33.73
2023-01-25T01:34:30.309Z,32.57
2023-01-25T01:37:00.155Z,35.57
2023-01-25T01:39:28.556Z,34.63
2023-01-25T01:41:57.137Z,32.07
2023-01-25T01:44:47.575Z,28.37
2023-01-25T01:47:21.740Z,25.30
2023-01-25T01:49:55.550Z,27.57
2023-01-25T01:52:32.414Z,26.67
2023-01-25T01:55:04.808Z,21.33
2023-01-25T01:57:38.411Z,22.53
2023-01-25T02:00:10.679Z,20.90
2023-01-25T02:02:39.485Z,26.30
2023-01-25T02:05:12.946Z,22.20
2023-01-25T02:07:42.795Z,27.53
2023-01-25T02:10:14.287Z,22.87
2023-01-25T02:12:44.045Z,23.83
2023-01-25T02:15:13.672Z,26.37
2023-01-25T02:17:43.595Z,28.63
2023-01-25T02:20:20.172Z,33.73
2023-01-25T02:22:56.277Z,37.47
2023-01-25T02:25:27.173Z,32.50
2023-01-25T02:28:02.274Z,28.87
2023-01-25T02:30:30.728Z,21.30
2023-01-25T02:32:59.123Z,24.73
2023-01-25T02:35:40.604Z,25.13
2023-01-25T02:38:09.809Z,21.83
2023-01-25T02:40:46.880Z,22.27
2023-01-25T02:43:16.751Z,24.27
2023-01-25T02:45:50.675Z,26.37
2023-01-25T02:48:19.127Z,22.43
2023-01-25T02:50:47.495Z,26.30
2023-01-25T02:53:15.858Z,23.37
2023-01-25T02:55:45.699Z,26.03
2023-01-25T02:58:14.093Z,25.30
2023-01-25T03:00:42.514Z,25.47
2023-01-25T03:03:10.955Z,26.20
2023-01-25T03:05:39.557Z,25.23
2023-01-25T03:10:51.664Z,29.23
2023-01-25T03:13:20.043Z,32.27
2023-01-25T03:15:49.079Z,27.13
2023-01-25T03:18:17.529Z,35.40
2023-01-25T03:20:46.027Z,32.97
2023-01-25T03:23:14.428Z,30.03
2023-01-25T03:25:44.223Z,30.13
2023-01-25T03:28:14.541Z,30.03
2023-01-25T03:30:42.947Z,36.77
2023-01-25T03:33:11.686Z,34.87
2023-01-25T03:35:40.092Z,40.70
2023-01-25T03:38:08.532Z,38.67
2023-01-25T03:40:36.937Z,34.57
2023-01-25T03:43:05.407Z,30.93
2023-01-25T03:45:35.243Z,35.47
2023-01-25T03:48:03.621Z,34.27
2023-01-25T03:50:32.101Z,35.80
2023-01-25T03:53:03.781Z,35.17
2023-01-25T03:55:32.206Z,32.00
2023-01-25T03:58:00.614Z,36.37
2023-01-25T04:00:29.216Z,29.50
2023-01-25T04:02:59.020Z,30.03
2023-01-25T04:05:27.488Z,31.93
2023-01-25T04:07:56.017Z,37.67
2023-01-25T04:10:24.478Z,35.23
2023-01-25T04:12:52.966Z,35.57
2023-01-25T04:15:21.349Z,35.07
2023-01-25T04:17:49.746Z,33.20
2023-01-25T04:20:20.085Z,34.63
2023-01-25T04:22:49.076Z,33.50
2023-01-25T04:25:17.620Z,30.53
2023-01-25T04:27:46.124Z,33.37
2023-01-25T04:30:14.962Z,35.53
2023-01-25T04:32:43.842Z,33.50
2023-01-25T04:35:12.483Z,28.13
2023-01-25T04:37:42.321Z,32.50
2023-01-25T04:40:12.416Z,30.70
2023-01-25T04:42:40.872Z,30.50
2023-01-25T04:45:10.259Z,32.30
2023-01-25T04:47:38.962Z,35.03
2023-01-25T04:50:07.970Z,31.70
2023-01-25T04:52:36.442Z,35.97
2023-01-25T04:55:07.524Z,36.07
2023-01-25T04:57:36.151Z,30.80
2023-01-25T05:00:05.322Z,36.33
2023-01-25T05:02:33.865Z,38.07
2023-01-25T05:05:02.717Z,32.83
2023-01-25T05:07:31.199Z,36.23
2023-01-25T05:09:59.596Z,38.17
2023-01-25T05:12:29.404Z,33.17
2023-01-25T05:14:57.966Z,34.63
2023-01-25T05:17:26.621Z,32.60
2023-01-25T05:19:55.052Z,36.47
2023-01-25T05:22:23.560Z,32.10
2023-01-25T05:24:52.003Z,37.97
2023-01-25T05:27:20.640Z,36.60
2023-01-25T05:29:50.553Z,30.80
2023-01-25T05:32:20.900Z,35.20
2023-01-25T05:34:49.878Z,32.50
2023-01-25T05:37:20.787Z,32.57
2023-01-25T05:39:49.491Z,31.73
2023-01-25T05:42:19.866Z,26.90
2023-01-25T05:44:49.671Z,32.53
2023-01-25T05:47:19.331Z,35.20
2023-01-25T05:49:48.420Z,28.23
2023-01-25T05:52:18.970Z,33.17
2023-01-25T05:54:47.390Z,30.03
2023-01-25T05:57:16.349Z,29.13
2023-01-25T05:59:44.773Z,28.80
2023-01-25T06:02:14.705Z,31.80
2023-01-25T06:04:43.306Z,26.93
2023-01-25T06:07:11.724Z,30.80
2023-01-25T06:09:40.153Z,30.83
2023-01-25T06:12:10.667Z,32.63
2023-01-25T06:14:39.038Z,30.57
2023-01-25T06:17:07.495Z,31.93
2023-01-25T06:19:37.338Z,29.20
2023-01-25T06:22:05.801Z,34.00
2023-01-25T06:24:34.236Z,26.83
2023-01-25T06:27:02.692Z,30.30
2023-01-25T06:29:31.111Z,29.63
2023-01-25T06:31:59.505Z,27.10
2023-01-25T06:34:27.986Z,28.50
2023-01-25T06:36:58.008Z,27.83
2023-01-25T06:39:26.645Z,27.93
2023-01-25T06:41:55.257Z,31.07
2023-01-25T06:44:23.736Z,33.77
2023-01-25T06:46:52.269Z,35.13
2023-01-25T06:49:20.705Z,29.80
2023-01-25T06:51:49.127Z,27.17
2023-01-25T06:54:18.898Z,30.00
2023-01-25T06:56:47.483Z,27.77
2023-01-25T06:59:17.191Z,25.63
2023-01-25T07:01:45.693Z,29.93
2023-01-25T07:04:14.473Z,28.03
2023-01-25T07:06:43.020Z,27.57
2023-01-25T07:09:14.260Z,33.37
2023-01-25T07:11:44.196Z,32.73
2023-01-25T07:14:12.611Z,33.50
2023-01-25T07:16:41.024Z,24.07
2023-01-25T07:19:13.441Z,29.43
2023-01-25T07:21:42.330Z,31.10
2023-01-25T07:24:16.387Z,31.60
2023-01-25T07:26:46.845Z,26.87
2023-01-25T07:29:17.572Z,32.33
2023-01-25T07:31:46.090Z,29.37
2023-01-25T07:34:15.105Z,33.03
2023-01-25T07:36:44.913Z,30.90
2023-01-25T07:39:13.737Z,36.87
2023-01-25T07:41:44.953Z,28.20
2023-01-25T07:44:14.949Z,28.77
2023-01-25T07:46:43.352Z,26.30
2023-01-25T07:49:11.772Z,25.67
2023-01-25T07:51:40.450Z,31.27
2023-01-25T07:54:08.927Z,33.83
2023-01-25T07:56:40.772Z,42.83
2023-01-25T07:59:11.176Z,28.53
2023-01-25T08:01:41.691Z,26.67
2023-01-25T08:04:10.956Z,26.93
2023-01-25T08:06:44.165Z,23.67
2023-01-25T08:09:15.257Z,25.50
2023-01-25T08:11:44.083Z,29.30
2023-01-25T08:14:12.852Z,19.87
2023-01-25T08:16:42.782Z,34.47
2023-01-25T08:19:11.677Z,46.33
2023-01-25T08:21:40.416Z,40.63
2023-01-25T08:24:09.730Z,30.83
2023-01-25T08:26:38.864Z,36.97
2023-01-25T08:29:08.430Z,31.50
2023-01-25T08:31:37.480Z,32.90
2023-01-25T08:34:07.808Z,32.47
2023-01-25T08:36:36.198Z,31.23
2023-01-25T08:39:06.639Z,27.37
2023-01-25T08:41:36.271Z,27.07
2023-01-25T08:44:05.677Z,32.93
2023-01-25T08:46:35.789Z,30.67
2023-01-25T08:49:05.077Z,34.20
2023-01-25T08:51:35.331Z,27.27
2023-01-25T08:54:05.223Z,21.60
2023-01-25T08:56:33.649Z,24.10
2023-01-25T08:59:02.185Z,21.43
2023-01-25T09:01:30.871Z,23.87
2023-01-25T09:03:59.844Z,23.97
2023-01-25T09:06:28.574Z,22.63
2023-01-25T09:09:00.053Z,21.23
2023-01-25T09:11:28.658Z,24.30
2023-01-25T09:13:57.149Z,24.47
2023-01-25T09:16:29.669Z,24.50
2023-01-25T09:19:00.554Z,24.07
2023-01-25T09:21:29.415Z,36.40
2023-01-25T09:24:08.110Z,31.70
2023-01-25T09:26:39.115Z,29.50
2023-01-25T09:29:08.939Z,24.60
2023-01-25T09:31:41.112Z,19.80
2023-01-25T09:34:10.249Z,23.23
2023-01-25T09:36:38.796Z,24.63
2023-01-25T09:39:08.888Z,21.47
2023-01-25T09:42:14.018Z,19.13
2023-01-25T09:45:01.922Z,19.83
2023-01-25T09:47:40.121Z,19.40
2023-01-25T09:50:26.968Z,23.10
2023-01-25T09:53:30.101Z,19.53
2023-01-25T09:56:02.805Z,20.07
2023-01-25T09:58:36.290Z,18.40
2023-01-25T10:01:26.723Z,18.83
2023-01-25T10:04:04.700Z,17.60
2023-01-25T10:06:40.776Z,18.60
2023-01-25T10:09:25.507Z,19.40
2023-01-25T10:11:55.617Z,26.30
2023-01-25T10:14:24.431Z,23.83
2023-01-25T10:17:04.150Z,26.57
2023-01-25T10:19:45.190Z,47.33
2023-01-25T10:22:17.523Z,34.63
2023-01-25T10:25:05.657Z,34.07
2023-01-25T10:27:44.555Z,28.23
2023-01-25T10:30:26.399Z,27.50
2023-01-25T10:32:58.568Z,31.70
2023-01-25T10:35:35.836Z,31.33
2023-01-25T10:38:13.090Z,33.23
2023-01-25T10:40:47.816Z,31.40
2023-01-25T10:43:21.294Z,28.03
2023-01-25T10:45:50.534Z,26.87
2023-01-25T10:48:22.608Z,28.03
2023-01-25T10:50:54.282Z,26.27
2023-01-25T10:53:30.534Z,36.43
2023-01-25T10:56:23.605Z,49.07
2023-01-25T10:59:06.606Z,40.20
2023-01-25T11:01:37.210Z,35.77
2023-01-25T11:04:25.448Z,27.50
2023-01-25T11:06:54.182Z,29.20
2023-01-25T11:09:37.308Z,26.23
2023-01-25T11:12:16.844Z,26.73
2023-01-25T11:14:49.985Z,25.80
2023-01-25T11:17:27.480Z,23.47
2023-01-25T11:20:19.814Z,22.70
2023-01-25T11:22:54.212Z,25.63
2023-01-25T11:25:34.118Z,21.70
2023-01-25T11:28:27.145Z,22.60
2023-01-25T11:30:57.141Z,21.30
2023-01-25T11:33:28.348Z,22.83
2023-01-25T11:36:21.447Z,23.87
2023-01-25T11:39:18.549Z,23.47
2023-01-25T11:42:00.742Z,20.07
2023-01-25T11:45:00.686Z,20.50
2023-01-25T11:47:42.503Z,21.93
2023-01-25T11:50:18.329Z,23.00
2023-01-25T11:53:28.674Z,22.33
2023-01-25T11:56:05.039Z,22.67
2023-01-25T11:59:07.763Z,23.30
2023-01-25T12:01:45.937Z,17.20
2023-01-25T12:04:47.144Z,25.90
2023-01-25T12:07:24.867Z,27.53
2023-01-25T12:10:06.066Z,30.03
2023-01-25T12:12:45.422Z,22.10
2023-01-25T12:15:36.476Z,20.47
2023-01-25T12:18:26.686Z,17.17
2023-01-25T12:21:30.581Z,17.93
2023-01-25T12:24:18.079Z,35.50
2023-01-25T12:26:56.126Z,20.17
2023-01-25T12:29:31.195Z,21.03
2023-01-25T12:32:05.528Z,19.27
2023-01-25T12:34:38.996Z,34.50
2023-01-25T12:37:14.801Z,30.27
2023-01-25T12:39:48.116Z,22.97
2023-01-25T12:42:21.597Z,38.27
2023-01-25T12:44:58.295Z,36.30
2023-01-25T12:47:35.756Z,36.87
2023-01-25T12:50:11.355Z,31.40
2023-01-25T12:52:48.997Z,26.17
2023-01-25T12:55:20.967Z,18.43
2023-01-25T12:57:55.380Z,20.53
2023-01-25T13:00:32.827Z,31.80
2023-01-25T13:03:18.271Z,36.67
2023-01-25T13:05:56.847Z,27.47
2023-01-25T13:08:40.575Z,20.53
2023-01-25T13:11:14.893Z,19.10
2023-01-25T13:13:44.102Z,21.37
2023-01-25T13:16:43.636Z,29.30
2023-01-25T13:19:22.334Z,20.47
2023-01-25T13:21:56.957Z,23.33
2023-01-25T13:24:28.835Z,19.17
2023-01-25T13:27:25.239Z,23.87
2023-01-25T13:30:01.276Z,25.20
2023-01-25T13:33:01.437Z,28.87
2023-01-25T13:35:35.311Z,30.90
2023-01-25T13:38:24.861Z,26.27
2023-01-25T13:41:17.673Z,26.70
2023-01-25T13:43:50.292Z,23.00
2023-01-25T13:46:24.467Z,19.27
2023-01-25T13:49:03.002Z,24.00
2023-01-25T13:51:38.269Z,23.87
2023-01-25T13:54:16.404Z,32.23
2023-01-25T13:56:46.746Z,45.53
2023-01-25T13:59:28.934Z,30.47
2023-01-25T14:01:59.208Z,20.03
2023-01-25T14:04:28.940Z,73.20
2023-01-25T14:07:00.203Z,79.13
2023-01-25T14:09:38.658Z,78.70
2023-01-25T14:12:13.895Z,52.83
2023-01-25T14:14:42.385Z,36.93
2023-01-25T14:17:18.162Z,44.33
2023-01-25T14:19:50.620Z,44.13
2023-01-25T14:22:25.934Z,33.60
2023-01-25T14:25:12.243Z,26.77
2023-01-25T14:27:46.945Z,23.67
2023-01-25T14:30:24.877Z,23.87
2023-01-25T14:32:58.552Z,18.33
2023-01-25T14:35:42.427Z,20.93
2023-01-25T14:38:24.391Z,23.50
2023-01-25T14:40:56.334Z,26.50
2023-01-25T14:43:32.367Z,30.23
2023-01-25T14:46:18.915Z,26.63
2023-01-25T14:48:47.634Z,22.17
2023-01-25T14:51:27.186Z,23.77
2023-01-25T14:54:01.504Z,33.43
2023-01-25T14:56:38.419Z,28.63
2023-01-25T14:59:08.911Z,24.60
2023-01-25T15:01:41.767Z,22.33
2023-01-25T15:04:14.675Z,22.07
2023-01-25T15:06:50.729Z,19.13
2023-01-25T15:09:37.608Z,19.87
2023-01-25T15:12:23.349Z,17.70
2023-01-25T15:14:55.214Z,19.93
2023-01-25T15:17:44.718Z,20.37
2023-01-25T15:20:41.082Z,18.37
2023-01-25T15:23:27.719Z,20.90
2023-01-25T15:25:58.077Z,18.43
2023-01-25T15:28:29.319Z,23.90
2023-01-25T15:30:59.834Z,25.50
2023-01-25T15:33:32.562Z,67.20
2023-01-25T15:36:01.331Z,42.53
2023-01-25T15:38:29.672Z,35.77
2023-01-25T15:41:01.660Z,32.73
2023-01-25T15:43:30.267Z,24.20
2023-01-25T15:46:01.517Z,27.30
2023-01-25T15:48:32.462Z,26.83
2023-01-25T15:51:03.018Z,21.00
2023-01-25T15:53:31.772Z,23.60
2023-01-25T15:56:03.579Z,20.90
2023-01-25T15:58:35.522Z,20.50
2023-01-25T16:01:06.414Z,20.87
2023-01-25T16:03:35.159Z,26.47
2023-01-25T16:06:06.906Z,22.90
2023-01-25T16:08:35.881Z,23.60
2023-01-25T16:11:04.265Z,20.43
2023-01-25T16:13:32.776Z,21.80
2023-01-25T16:16:01.169Z,18.13
2023-01-25T16:18:31.137Z,18.10
2023-01-25T16:20:59.621Z,24.17
2023-01-25T16:23:28.090Z,22.03
2023-01-25T16:25:56.612Z,18.77
2023-01-25T16:28:25.111Z,20.60
2023-01-25T16:30:53.681Z,18.00
2023-01-25T16:33:24.653Z,20.87
2023-01-25T16:36:06.140Z,24.73
2023-01-25T16:38:35.590Z,33.90
2023-01-25T16:41:04.200Z,37.50
2023-01-25T16:43:42.400Z,34.50
2023-01-25T16:46:17.890Z,28.97
2023-01-25T16:48:47.164Z,27.60
2023-01-25T16:51:21.919Z,23.87
2023-01-25T16:53:51.839Z,24.47
2023-01-25T16:56:22.427Z,22.07
2023-01-25T16:58:52.124Z,31.43
2023-01-25T17:01:22.778Z,29.93
2023-01-25T17:03:51.785Z,24.93
2023-01-25T17:06:23.078Z,22.80
2023-01-25T17:08:51.929Z,22.87
2023-01-25T17:11:21.809Z,26.37
2023-01-25T17:13:51.397Z,25.77
2023-01-25T17:16:20.389Z,23.13
2023-01-25T17:18:49.706Z,24.27
2023-01-25T17:21:21.365Z,19.97
2023-01-25T17:23:50.398Z,22.43
2023-01-25T17:26:21.500Z,22.40
2023-01-25T17:28:50.575Z,24.77
2023-01-25T17:31:20.987Z,25.93
2023-01-25T17:33:50.071Z,26.77
2023-01-25T17:36:18.609Z,24.47
2023-01-25T17:38:50.896Z,26.73
2023-01-25T17:41:19.579Z,27.23
2023-01-25T17:43:52.426Z,23.77
2023-01-25T17:46:27.117Z,26.53
2023-01-25T17:48:55.852Z,26.03
2023-01-25T17:51:25.281Z,23.30
2023-01-25T17:53:55.607Z,25.77
2023-01-25T17:56:24.209Z,28.93
2023-01-25T17:58:52.815Z,25.57
2023-01-25T18:01:23.339Z,28.90
2023-01-25T18:03:53.205Z,28.80
2023-01-25T18:06:24.727Z,28.90
2023-01-25T18:08:56.372Z,25.57
2023-01-25T18:11:28.146Z,25.53
2023-01-25T18:13:59.065Z,28.87
2023-01-25T18:16:30.218Z,26.47
2023-01-25T18:19:00.779Z,23.50
2023-01-25T18:21:33.390Z,29.23
2023-01-25T18:24:08.161Z,33.03
2023-01-25T18:26:38.711Z,33.30
2023-01-25T18:29:48.232Z,34.63
2023-01-25T18:32:17.596Z,29.90
2023-01-25T18:34:48.320Z,26.00
2023-01-25T18:37:21.118Z,24.03
2023-01-25T18:39:53.041Z,29.37
2023-01-25T18:42:23.035Z,27.37
2023-01-25T18:44:51.903Z,29.10
2023-01-25T18:47:22.248Z,25.37
2023-01-25T18:49:51.982Z,26.73
2023-01-25T18:52:22.251Z,24.73
2023-01-25T18:54:52.575Z,22.90
2023-01-25T18:57:21.541Z,24.00
2023-01-25T18:59:50.091Z,21.23
2023-01-25T19:02:19.721Z,25.93
2023-01-25T19:04:48.263Z,23.27
2023-01-25T19:07:16.809Z,27.13
2023-01-25T19:09:45.285Z,21.30
2023-01-25T19:12:15.432Z,28.40
2023-01-25T19:14:43.846Z,24.13
2023-01-25T19:17:12.540Z,22.83
2023-01-25T19:19:42.710Z,22.30
2023-01-25T19:22:11.398Z,22.17
2023-01-25T19:24:39.819Z,23.73
2023-01-25T19:27:08.357Z,18.63
2023-01-25T19:29:38.396Z,21.50
2023-01-25T19:32:07.268Z,21.47
2023-01-25T19:34:35.708Z,25.17
2023-01-25T19:37:04.267Z,23.30
2023-01-25T19:39:32.980Z,24.00
2023-01-25T19:42:01.835Z,27.17
2023-01-25T19:44:30.372Z,21.90
2023-01-25T19:47:01.915Z,21.77
2023-01-25T19:49:30.343Z,24.07
2023-01-25T19:51:58.747Z,22.73
2023-01-25T19:54:27.202Z,20.83
2023-01-25T19:56:56.405Z,21.37
2023-01-25T19:59:27.224Z,28.37
2023-01-25T20:01:56.383Z,23.90
2023-01-25T20:04:26.277Z,20.90
2023-01-25T20:06:54.697Z,23.23
2023-01-25T20:09:28.297Z,30.03
2023-01-25T20:11:57.450Z,29.93
2023-01-25T20:14:25.913Z,66.53
2023-01-25T20:16:54.304Z,93.70
2023-01-25T20:19:22.834Z,67.07
2023-01-25T20:21:52.734Z,53.13
2023-01-25T20:24:21.631Z,57.47
2023-01-25T20:26:52.036Z,46.23
2023-01-25T20:29:22.687Z,131.23
2023-01-25T20:31:51.548Z,179.73
2023-01-25T20:34:21.788Z,192.97
2023-01-25T20:36:51.346Z,211.60
2023-01-25T20:39:24.174Z,126.83
2023-01-25T20:41:56.818Z,50.57
2023-01-25T20:44:29.768Z,60.73
2023-01-25T20:46:58.513Z,65.27
2023-01-25T20:49:27.197Z,101.27
2023-01-25T20:51:55.762Z,55.40
2023-01-25T20:54:25.668Z,47.93
2023-01-25T20:56:54.159Z,76.00
2023-01-25T20:59:22.618Z,56.17
2023-01-25T21:01:58.712Z,46.40
2023-01-25T21:04:27.172Z,40.17
2023-01-25T21:06:55.730Z,73.93
2023-01-25T21:09:28.438Z,71.20
2023-01-25T21:11:57.223Z,47.10
2023-01-25T21:14:25.814Z,197.20
2023-01-25T21:16:54.303Z,301.03
2023-01-25T21:19:24.878Z,80.40
2023-01-25T21:21:53.406Z,40.97
2023-01-25T21:24:22.275Z,40.73
2023-01-25T21:26:52.284Z,34.50
2023-01-25T21:29:21.396Z,38.27
2023-01-25T21:31:53.765Z,35.33
2023-01-25T21:34:22.490Z,36.67
2023-01-25T21:36:51.668Z,39.40
2023-01-25T21:39:20.089Z,38.10
2023-01-25T21:41:48.577Z,43.83
2023-01-25T21:44:35.782Z,32.43
2023-01-25T21:50:10.163Z,37.43
2023-01-25T21:52:38.998Z,37.87
2023-01-25T21:55:09.134Z,38.27
2023-01-25T21:57:41.089Z,36.43
2023-01-25T22:00:12.626Z,37.33
2023-01-25T22:02:41.319Z,34.97
2023-01-25T22:05:10.360Z,34.20
2023-01-25T22:07:38.830Z,35.93
2023-01-25T22:10:07.806Z,36.40
2023-01-25T22:12:36.422Z,36.57
2023-01-25T22:15:05.257Z,37.90
2023-01-25T22:17:35.191Z,34.20
2023-01-25T22:20:03.818Z,37.47
2023-01-25T22:22:32.256Z,41.13
2023-01-25T22:25:00.865Z,43.53
2023-01-25T22:27:37.103Z,39.07
2023-01-25T22:30:06.833Z,45.47
2023-01-25T22:32:36.700Z,50.40
2023-01-25T22:35:05.397Z,43.87
2023-01-25T22:37:36.728Z,58.00
2023-01-25T22:40:06.083Z,62.87
2023-01-25T22:42:35.271Z,78.87
2023-01-25T22:45:03.834Z,66.87
2023-01-25T22:47:32.677Z,66.30
2023-01-25T22:50:02.533Z,56.50
2023-01-25T22:52:30.945Z,50.17
2023-01-25T22:54:59.432Z,56.93
2023-01-25T22:57:28.314Z,49.90
2023-01-25T22:59:56.796Z,59.97
2023-01-25T23:02:25.227Z,55.43
2023-01-25T23:04:54.849Z,44.60
2023-01-25T23:07:24.757Z,49.00
2023-01-25T23:09:53.421Z,47.93
2023-01-25T23:12:22.020Z,42.10
2023-01-25T23:14:54.106Z,44.73
2023-01-25T23:17:53.455Z,43.30
2023-01-25T23:20:22.037Z,41.50
2023-01-25T23:22:53.441Z,47.37
2023-01-25T23:25:21.973Z,48.00
2023-01-25T23:27:50.871Z,42.20
2023-01-25T23:30:19.665Z,43.33
2023-01-25T23:32:49.478Z,44.40
2023-01-25T23:35:19.008Z,49.30
2023-01-25T23:37:48.717Z,47.80
2023-01-25T23:40:18.935Z,46.17
2023-01-25T23:42:47.371Z,38.27
2023-01-25T23:45:16.149Z,43.00
2023-01-25T23:47:44.595Z,42.07
2023-01-25T23:50:13.805Z,47.27
2023-01-25T23:52:42.650Z,49.47
2023-01-25T23:55:11.792Z,53.47
2023-01-25T23:57:41.583Z,52.63
